Airfield :







YOU CAN JOIN US ON...

 
LOGIN :

Register | Disclaimer

   EN    FR    IT 

 









Legend :    VFR   Marginal VFR   IFR   Intensive IFR   Very Intensive IFR
Visi :
Ceiling :
>= 8 km
>= 3000ft
5 to 8 km
1000 to 3000 ft
1500m to 5 km
500 to 1000 ft
800 to 1500m
200 to 500 ft
< 800m
< 200 ft
Symbols :   Thunderstorms  Fog  Heavy snow  Heavy precipitations  Wind > 20 kt






- Airport Elevation : 74 ft
- IATA code : PMV


SVMG - Del Caribe Int. Gen Santiago M

CURRENT METAR :
  • 130803Z AUTO 10011KT NCD 27/26 Q1014

EXPIRED METARs :
  • 130703Z AUTO 10010KT NCD 27/26 Q1014
  • 130603Z AUTO 10011KT NCD 32/26 Q1015
  • 130503Z AUTO 09010KT NCD 32/26 Q1015
  • 130403Z AUTO 09010KT NCD 33/26 Q1016

TAF TAF SVMG
Valid from the 13 at 06:00 until the 14 at 06:00 UTC


130400 1306/1406 09001KT 9999 SCT016 TX34/1418Z TN25/1308Z
BECMG 1305/1309 23005KT 9999 SCT016 BKN100
SVZM FIR / South America



MET'MAP, your aeronautical weather chart ! - Copyright ORBIFLY December 2007 - Disclaimer

ORBIFLY MET'MAP TEAM :

Programming & Development : Alexandra Zaïnal
Original concept : Baudouin d'Aumeries
Technical & hardware support : Manuel Goepfert
Assistance : Marc-Olivier Méhu




SOURCES & CREDITS :

   NOAA